sensor_id;sensor_type;location;lat;lon;timestamp;P1;durP1;ratioP1;P2;durP2;ratioP2
27622;SDS011;15041;45.334;5.622;2024-02-21T00:01:39;4.57;;;3.07;;
27622;SDS011;15041;45.334;5.622;2024-02-21T00:04:08;9.07;;;3.30;;
27622;SDS011;15041;45.334;5.622;2024-02-21T00:06:35;7.27;;;3.17;;
27622;SDS011;15041;45.334;5.622;2024-02-21T00:09:02;4.77;;;3.13;;
27622;SDS011;15041;45.334;5.622;2024-02-21T00:11:29;6.37;;;3.73;;
27622;SDS011;15041;45.334;5.622;2024-02-21T00:13:56;6.93;;;3.87;;
27622;SDS011;15041;45.334;5.622;2024-02-21T00:16:23;8.73;;;4.20;;
27622;SDS011;15041;45.334;5.622;2024-02-21T00:18:52;6.77;;;3.87;;
27622;SDS011;15041;45.334;5.622;2024-02-21T00:21:21;7.37;;;3.03;;
27622;SDS011;15041;45.334;5.622;2024-02-21T00:23:48;7.17;;;3.20;;
27622;SDS011;15041;45.334;5.622;2024-02-21T00:26:16;7.80;;;4.40;;
27622;SDS011;15041;45.334;5.622;2024-02-21T00:28:43;6.73;;;3.87;;
27622;SDS011;15041;45.334;5.622;2024-02-21T00:31:10;10.47;;;4.60;;
27622;SDS011;15041;45.334;5.622;2024-02-21T00:33:37;10.00;;;5.07;;
27622;SDS011;15041;45.334;5.622;2024-02-21T00:36:04;6.37;;;3.80;;
27622;SDS011;15041;45.334;5.622;2024-02-21T00:38:33;6.37;;;3.47;;
27622;SDS011;15041;45.334;5.622;2024-02-21T00:41:00;3.20;;;2.40;;
27622;SDS011;15041;45.334;5.622;2024-02-21T00:43:27;4.70;;;2.27;;
27622;SDS011;15041;45.334;5.622;2024-02-21T00:45:54;7.03;;;3.13;;
27622;SDS011;15041;45.334;5.622;2024-02-21T00:48:21;4.60;;;2.30;;
27622;SDS011;15041;45.334;5.622;2024-02-21T00:50:49;3.23;;;2.27;;
27622;SDS011;15041;45.334;5.622;2024-02-21T00:53:16;9.40;;;3.63;;
27622;SDS011;15041;45.334;5.622;2024-02-21T00:55:44;9.77;;;4.87;;
27622;SDS011;15041;45.334;5.622;2024-02-21T00:58:11;23.00;;;9.33;;
27622;SDS011;15041;45.334;5.622;2024-02-21T01:00:38;9.73;;;5.20;;
27622;SDS011;15041;45.334;5.622;2024-02-21T01:03:06;8.77;;;4.10;;
27622;SDS011;15041;45.334;5.622;2024-02-21T01:05:33;3.70;;;3.03;;
27622;SDS011;15041;45.334;5.622;2024-02-21T01:08:00;6.43;;;3.50;;
27622;SDS011;15041;45.334;5.622;2024-02-21T01:10:27;7.63;;;3.70;;
27622;SDS011;15041;45.334;5.622;2024-02-21T01:12:56;7.10;;;3.73;;
27622;SDS011;15041;45.334;5.622;2024-02-21T01:15:23;4.80;;;2.90;;
27622;SDS011;15041;45.334;5.622;2024-02-21T01:17:51;6.57;;;3.70;;
27622;SDS011;15041;45.334;5.622;2024-02-21T01:20:20;5.90;;;4.20;;
27622;SDS011;15041;45.334;5.622;2024-02-21T01:22:47;5.43;;;3.57;;
27622;SDS011;15041;45.334;5.622;2024-02-21T01:25:14;7.30;;;3.50;;
27622;SDS011;15041;45.334;5.622;2024-02-21T01:27:41;5.93;;;3.80;;
27622;SDS011;15041;45.334;5.622;2024-02-21T01:30:10;5.83;;;3.33;;
27622;SDS011;15041;45.334;5.622;2024-02-21T01:32:56;6.70;;;4.00;;
27622;SDS011;15041;45.334;5.622;2024-02-21T01:35:24;7.53;;;4.03;;
27622;SDS011;15041;45.334;5.622;2024-02-21T01:37:51;10.03;;;4.33;;
27622;SDS011;15041;45.334;5.622;2024-02-21T01:40:18;7.17;;;4.90;;
27622;SDS011;15041;45.334;5.622;2024-02-21T01:42:45;6.33;;;3.80;;
27622;SDS011;15041;45.334;5.622;2024-02-21T01:45:14;5.87;;;3.97;;
27622;SDS011;15041;45.334;5.622;2024-02-21T01:47:41;8.53;;;5.53;;
27622;SDS011;15041;45.334;5.622;2024-02-21T01:50:09;13.40;;;7.50;;
27622;SDS011;15041;45.334;5.622;2024-02-21T01:52:36;8.87;;;6.03;;
27622;SDS011;15041;45.334;5.622;2024-02-21T01:55:05;8.97;;;5.30;;
27622;SDS011;15041;45.334;5.622;2024-02-21T01:57:34;7.67;;;5.40;;
27622;SDS011;15041;45.334;5.622;2024-02-21T02:00:02;4.90;;;3.73;;
27622;SDS011;15041;45.334;5.622;2024-02-21T02:02:37;6.97;;;4.30;;
27622;SDS011;15041;45.334;5.622;2024-02-21T02:05:05;10.00;;;5.07;;
27622;SDS011;15041;45.334;5.622;2024-02-21T02:07:34;7.83;;;4.40;;
27622;SDS011;15041;45.334;5.622;2024-02-21T02:10:01;9.27;;;5.60;;
27622;SDS011;15041;45.334;5.622;2024-02-21T02:12:28;9.73;;;6.23;;
27622;SDS011;15041;45.334;5.622;2024-02-21T02:14:59;6.20;;;4.67;;
27622;SDS011;15041;45.334;5.622;2024-02-21T02:17:26;7.03;;;4.23;;
27622;SDS011;15041;45.334;5.622;2024-02-21T02:19:55;7.03;;;3.83;;
27622;SDS011;15041;45.334;5.622;2024-02-21T02:22:22;6.03;;;4.40;;
27622;SDS011;15041;45.334;5.622;2024-02-21T02:24:56;9.37;;;5.60;;
27622;SDS011;15041;45.334;5.622;2024-02-21T02:27:23;7.30;;;4.63;;
27622;SDS011;15041;45.334;5.622;2024-02-21T02:29:50;5.53;;;4.03;;
27622;SDS011;15041;45.334;5.622;2024-02-21T02:32:17;5.70;;;4.13;;
27622;SDS011;15041;45.334;5.622;2024-02-21T02:34:45;7.90;;;3.40;;
27622;SDS011;15041;45.334;5.622;2024-02-21T02:37:12;4.37;;;3.40;;
27622;SDS011;15041;45.334;5.622;2024-02-21T02:39:39;6.77;;;3.80;;
27622;SDS011;15041;45.334;5.622;2024-02-21T02:42:07;4.27;;;2.80;;
27622;SDS011;15041;45.334;5.622;2024-02-21T02:44:35;4.73;;;2.83;;
27622;SDS011;15041;45.334;5.622;2024-02-21T02:47:02;4.77;;;3.07;;
27622;SDS011;15041;45.334;5.622;2024-02-21T02:49:30;11.47;;;3.57;;
27622;SDS011;15041;45.334;5.622;2024-02-21T02:51:57;4.23;;;3.30;;
27622;SDS011;15041;45.334;5.622;2024-02-21T02:54:24;7.47;;;3.30;;
27622;SDS011;15041;45.334;5.622;2024-02-21T02:56:51;4.67;;;3.03;;
27622;SDS011;15041;45.334;5.622;2024-02-21T02:59:19;7.13;;;3.90;;
27622;SDS011;15041;45.334;5.622;2024-02-21T03:01:46;7.73;;;4.10;;
27622;SDS011;15041;45.334;5.622;2024-02-21T03:04:13;8.00;;;4.43;;
27622;SDS011;15041;45.334;5.622;2024-02-21T03:06:40;5.60;;;3.60;;
27622;SDS011;15041;45.334;5.622;2024-02-21T03:09:08;6.37;;;2.97;;
27622;SDS011;15041;45.334;5.622;2024-02-21T03:11:35;6.47;;;2.80;;
27622;SDS011;15041;45.334;5.622;2024-02-21T03:14:06;3.13;;;2.77;;
27622;SDS011;15041;45.334;5.622;2024-02-21T03:16:34;4.30;;;3.03;;
27622;SDS011;15041;45.334;5.622;2024-02-21T03:19:01;6.23;;;3.10;;
27622;SDS011;15041;45.334;5.622;2024-02-21T03:21:28;3.77;;;3.03;;
27622;SDS011;15041;45.334;5.622;2024-02-21T03:23:56;6.03;;;3.40;;
27622;SDS011;15041;45.334;5.622;2024-02-21T03:26:23;6.10;;;3.43;;
27622;SDS011;15041;45.334;5.622;2024-02-21T03:28:50;6.83;;;3.57;;
27622;SDS011;15041;45.334;5.622;2024-02-21T03:31:17;4.23;;;3.67;;
27622;SDS011;15041;45.334;5.622;2024-02-21T03:33:45;4.60;;;3.57;;
27622;SDS011;15041;45.334;5.622;2024-02-21T03:36:13;5.77;;;2.97;;
27622;SDS011;15041;45.334;5.622;2024-02-21T03:38:41;3.07;;;2.40;;
27622;SDS011;15041;45.334;5.622;2024-02-21T03:41:08;7.37;;;3.27;;
27622;SDS011;15041;45.334;5.622;2024-02-21T03:43:37;4.33;;;3.40;;
27622;SDS011;15041;45.334;5.622;2024-02-21T03:46:04;8.50;;;5.67;;
27622;SDS011;15041;45.334;5.622;2024-02-21T03:48:31;7.23;;;4.60;;
27622;SDS011;15041;45.334;5.622;2024-02-21T03:51:00;4.63;;;3.90;;
27622;SDS011;15041;45.334;5.622;2024-02-21T03:53:27;5.97;;;3.50;;
27622;SDS011;15041;45.334;5.622;2024-02-21T03:55:55;2.97;;;2.50;;
27622;SDS011;15041;45.334;5.622;2024-02-21T03:58:25;4.17;;;2.77;;
27622;SDS011;15041;45.334;5.622;2024-02-21T04:00:52;4.80;;;3.03;;
27622;SDS011;15041;45.334;5.622;2024-02-21T04:03:19;7.00;;;3.30;;
27622;SDS011;15041;45.334;5.622;2024-02-21T04:05:46;4.73;;;3.13;;
27622;SDS011;15041;45.334;5.622;2024-02-21T04:08:15;4.50;;;3.30;;
27622;SDS011;15041;45.334;5.622;2024-02-21T04:10:42;6.30;;;3.60;;
27622;SDS011;15041;45.334;5.622;2024-02-21T04:13:09;8.10;;;4.90;;
27622;SDS011;15041;45.334;5.622;2024-02-21T04:15:36;11.17;;;7.43;;
27622;SDS011;15041;45.334;5.622;2024-02-21T04:18:04;8.87;;;6.03;;
27622;SDS011;15041;45.334;5.622;2024-02-21T04:20:31;6.80;;;4.97;;
27622;SDS011;15041;45.334;5.622;2024-02-21T04:22:58;7.03;;;3.70;;
27622;SDS011;15041;45.334;5.622;2024-02-21T04:25:26;6.23;;;4.20;;
27622;SDS011;15041;45.334;5.622;2024-02-21T04:27:54;4.70;;;3.50;;
27622;SDS011;15041;45.334;5.622;2024-02-21T04:30:21;6.13;;;4.03;;
27622;SDS011;15041;45.334;5.622;2024-02-21T04:32:48;3.73;;;3.43;;
27622;SDS011;15041;45.334;5.622;2024-02-21T04:35:15;13.53;;;8.43;;
27622;SDS011;15041;45.334;5.622;2024-02-21T04:37:42;10.23;;;6.37;;
27622;SDS011;15041;45.334;5.622;2024-02-21T04:40:10;12.23;;;7.40;;
27622;SDS011;15041;45.334;5.622;2024-02-21T04:42:39;12.87;;;6.77;;
27622;SDS011;15041;45.334;5.622;2024-02-21T04:45:07;7.80;;;5.10;;
27622;SDS011;15041;45.334;5.622;2024-02-21T04:47:34;7.13;;;5.23;;
27622;SDS011;15041;45.334;5.622;2024-02-21T04:50:01;7.87;;;5.07;;
27622;SDS011;15041;45.334;5.622;2024-02-21T04:52:29;8.20;;;5.47;;
27622;SDS011;15041;45.334;5.622;2024-02-21T04:54:56;10.73;;;6.80;;
27622;SDS011;15041;45.334;5.622;2024-02-21T04:57:23;9.00;;;6.77;;
27622;SDS011;15041;45.334;5.622;2024-02-21T04:59:52;9.57;;;6.60;;
27622;SDS011;15041;45.334;5.622;2024-02-21T05:02:19;5.87;;;4.50;;
27622;SDS011;15041;45.334;5.622;2024-02-21T05:04:48;3.90;;;3.53;;
27622;SDS011;15041;45.334;5.622;2024-02-21T05:07:15;6.77;;;3.87;;
27622;SDS011;15041;45.334;5.622;2024-02-21T05:09:42;6.13;;;3.60;;
27622;SDS011;15041;45.334;5.622;2024-02-21T05:12:09;7.00;;;3.40;;
27622;SDS011;15041;45.334;5.622;2024-02-21T05:14:36;3.80;;;3.50;;
27622;SDS011;15041;45.334;5.622;2024-02-21T05:17:05;3.73;;;3.33;;
27622;SDS011;15041;45.334;5.622;2024-02-21T05:19:32;4.03;;;3.43;;
27622;SDS011;15041;45.334;5.622;2024-02-21T05:21:59;3.47;;;2.70;;
27622;SDS011;15041;45.334;5.622;2024-02-21T05:24:26;6.43;;;2.93;;
27622;SDS011;15041;45.334;5.622;2024-02-21T05:26:54;3.20;;;2.80;;
27622;SDS011;15041;45.334;5.622;2024-02-21T05:29:21;5.30;;;3.10;;
27622;SDS011;15041;45.334;5.622;2024-02-21T05:31:55;4.83;;;2.57;;
27622;SDS011;15041;45.334;5.622;2024-02-21T05:34:25;8.23;;;3.00;;
27622;SDS011;15041;45.334;5.622;2024-02-21T05:36:52;5.47;;;3.30;;
27622;SDS011;15041;45.334;5.622;2024-02-21T05:39:19;4.73;;;3.20;;
27622;SDS011;15041;45.334;5.622;2024-02-21T05:41:48;3.30;;;2.13;;
27622;SDS011;15041;45.334;5.622;2024-02-21T05:44:16;4.60;;;2.80;;
27622;SDS011;15041;45.334;5.622;2024-02-21T05:46:43;5.40;;;2.33;;
27622;SDS011;15041;45.334;5.622;2024-02-21T05:49:12;3.87;;;2.30;;
27622;SDS011;15041;45.334;5.622;2024-02-21T05:51:42;6.23;;;2.60;;
27622;SDS011;15041;45.334;5.622;2024-02-21T05:54:09;4.47;;;2.37;;
27622;SDS011;15041;45.334;5.622;2024-02-21T05:56:36;3.37;;;2.77;;
27622;SDS011;15041;45.334;5.622;2024-02-21T05:59:04;4.43;;;2.77;;
27622;SDS011;15041;45.334;5.622;2024-02-21T06:01:31;3.70;;;2.60;;
27622;SDS011;15041;45.334;5.622;2024-02-21T06:03:58;3.13;;;2.37;;
27622;SDS011;15041;45.334;5.622;2024-02-21T06:06:25;2.87;;;2.50;;
27622;SDS011;15041;45.334;5.622;2024-02-21T06:08:53;5.43;;;3.23;;
27622;SDS011;15041;45.334;5.622;2024-02-21T06:11:21;5.03;;;2.20;;
27622;SDS011;15041;45.334;5.622;2024-02-21T06:13:48;5.10;;;3.10;;
27622;SDS011;15041;45.334;5.622;2024-02-21T06:16:15;6.97;;;4.17;;
27622;SDS011;15041;45.334;5.622;2024-02-21T06:18:42;6.93;;;4.30;;
27622;SDS011;15041;45.334;5.622;2024-02-21T06:21:09;7.80;;;4.17;;
27622;SDS011;15041;45.334;5.622;2024-02-21T06:23:37;6.80;;;4.07;;
27622;SDS011;15041;45.334;5.622;2024-02-21T06:26:06;7.80;;;4.67;;
27622;SDS011;15041;45.334;5.622;2024-02-21T06:28:33;10.17;;;5.97;;
27622;SDS011;15041;45.334;5.622;2024-02-21T06:31:00;8.73;;;3.80;;
27622;SDS011;15041;45.334;5.622;2024-02-21T06:33:27;11.33;;;4.27;;
27622;SDS011;15041;45.334;5.622;2024-02-21T06:35:54;10.17;;;4.40;;
27622;SDS011;15041;45.334;5.622;2024-02-21T06:38:22;7.53;;;4.73;;
27622;SDS011;15041;45.334;5.622;2024-02-21T06:40:49;8.70;;;5.07;;
27622;SDS011;15041;45.334;5.622;2024-02-21T06:43:19;5.63;;;4.63;;
27622;SDS011;15041;45.334;5.622;2024-02-21T06:45:47;9.33;;;5.20;;
27622;SDS011;15041;45.334;5.622;2024-02-21T06:48:16;9.77;;;5.60;;
27622;SDS011;15041;45.334;5.622;2024-02-21T06:50:44;8.93;;;4.93;;
27622;SDS011;15041;45.334;5.622;2024-02-21T06:53:12;7.47;;;4.87;;
27622;SDS011;15041;45.334;5.622;2024-02-21T06:55:39;18.07;;;6.57;;
27622;SDS011;15041;45.334;5.622;2024-02-21T06:58:06;8.83;;;5.43;;
27622;SDS011;15041;45.334;5.622;2024-02-21T07:00:38;9.30;;;4.83;;
27622;SDS011;15041;45.334;5.622;2024-02-21T07:03:06;11.33;;;5.90;;
27622;SDS011;15041;45.334;5.622;2024-02-21T07:05:33;12.27;;;6.50;;
27622;SDS011;15041;45.334;5.622;2024-02-21T07:08:00;12.20;;;5.77;;
27622;SDS011;15041;45.334;5.622;2024-02-21T07:10:28;10.07;;;6.30;;
27622;SDS011;15041;45.334;5.622;2024-02-21T07:12:55;9.53;;;6.17;;
27622;SDS011;15041;45.334;5.622;2024-02-21T07:15:22;6.47;;;4.60;;
27622;SDS011;15041;45.334;5.622;2024-02-21T07:17:53;9.47;;;4.90;;
27622;SDS011;15041;45.334;5.622;2024-02-21T07:20:20;6.87;;;4.73;;
27622;SDS011;15041;45.334;5.622;2024-02-21T07:22:47;10.27;;;4.80;;
27622;SDS011;15041;45.334;5.622;2024-02-21T07:25:14;9.30;;;5.30;;
27622;SDS011;15041;45.334;5.622;2024-02-21T07:27:42;12.50;;;5.03;;
27622;SDS011;15041;45.334;5.622;2024-02-21T07:30:10;12.13;;;5.10;;
27622;SDS011;15041;45.334;5.622;2024-02-21T07:32:37;11.67;;;4.80;;
27622;SDS011;15041;45.334;5.622;2024-02-21T07:35:06;8.90;;;4.80;;
27622;SDS011;15041;45.334;5.622;2024-02-21T07:37:36;5.90;;;4.80;;
27622;SDS011;15041;45.334;5.622;2024-02-21T07:40:04;11.23;;;6.13;;
27622;SDS011;15041;45.334;5.622;2024-02-21T07:42:32;9.80;;;7.47;;
27622;SDS011;15041;45.334;5.622;2024-02-21T07:45:00;15.73;;;9.53;;
27622;SDS011;15041;45.334;5.622;2024-02-21T07:47:28;10.10;;;6.30;;
27622;SDS011;15041;45.334;5.622;2024-02-21T07:49:55;16.80;;;6.33;;
27622;SDS011;15041;45.334;5.622;2024-02-21T07:52:24;11.83;;;5.97;;
27622;SDS011;15041;45.334;5.622;2024-02-21T07:54:51;11.53;;;6.03;;
27622;SDS011;15041;45.334;5.622;2024-02-21T07:57:18;15.30;;;6.80;;
27622;SDS011;15041;45.334;5.622;2024-02-21T07:59:45;11.33;;;6.37;;
27622;SDS011;15041;45.334;5.622;2024-02-21T08:02:13;8.23;;;6.60;;
27622;SDS011;15041;45.334;5.622;2024-02-21T08:04:40;14.07;;;7.03;;
27622;SDS011;15041;45.334;5.622;2024-02-21T08:07:07;11.30;;;6.83;;
27622;SDS011;15041;45.334;5.622;2024-02-21T08:09:39;14.80;;;9.37;;
27622;SDS011;15041;45.334;5.622;2024-02-21T08:12:06;17.93;;;12.00;;
27622;SDS011;15041;45.334;5.622;2024-02-21T08:14:33;22.63;;;13.17;;
27622;SDS011;15041;45.334;5.622;2024-02-21T08:17:01;17.27;;;10.33;;
27622;SDS011;15041;45.334;5.622;2024-02-21T08:19:29;12.73;;;8.30;;
27622;SDS011;15041;45.334;5.622;2024-02-21T08:21:56;14.50;;;7.50;;
27622;SDS011;15041;45.334;5.622;2024-02-21T08:24:23;10.80;;;8.00;;
27622;SDS011;15041;45.334;5.622;2024-02-21T08:26:52;13.77;;;6.80;;
27622;SDS011;15041;45.334;5.622;2024-02-21T08:29:19;14.33;;;6.20;;
27622;SDS011;15041;45.334;5.622;2024-02-21T08:31:46;18.87;;;6.77;;
27622;SDS011;15041;45.334;5.622;2024-02-21T08:34:13;9.70;;;6.27;;
27622;SDS011;15041;45.334;5.622;2024-02-21T08:36:40;12.83;;;6.57;;
27622;SDS011;15041;45.334;5.622;2024-02-21T08:39:07;19.30;;;6.03;;
27622;SDS011;15041;45.334;5.622;2024-02-21T08:41:36;9.50;;;5.87;;
27622;SDS011;15041;45.334;5.622;2024-02-21T08:44:05;8.63;;;4.70;;
27622;SDS011;15041;45.334;5.622;2024-02-21T08:46:32;7.43;;;5.80;;
27622;SDS011;15041;45.334;5.622;2024-02-21T08:48:59;9.53;;;6.43;;
27622;SDS011;15041;45.334;5.622;2024-02-21T08:51:27;11.40;;;5.60;;
27622;SDS011;15041;45.334;5.622;2024-02-21T08:53:54;7.27;;;5.10;;
27622;SDS011;15041;45.334;5.622;2024-02-21T08:56:21;8.10;;;4.63;;
27622;SDS011;15041;45.334;5.622;2024-02-21T08:58:48;7.93;;;4.67;;
27622;SDS011;15041;45.334;5.622;2024-02-21T09:01:17;10.47;;;5.40;;
27622;SDS011;15041;45.334;5.622;2024-02-21T09:03:46;10.87;;;5.60;;
27622;SDS011;15041;45.334;5.622;2024-02-21T09:06:13;9.87;;;4.97;;
27622;SDS011;15041;45.334;5.622;2024-02-21T09:08:40;5.70;;;4.73;;
27622;SDS011;15041;45.334;5.622;2024-02-21T09:11:08;8.07;;;4.70;;
27622;SDS011;15041;45.334;5.622;2024-02-21T09:13:36;15.30;;;4.80;;
27622;SDS011;15041;45.334;5.622;2024-02-21T09:16:03;6.93;;;4.87;;
27622;SDS011;15041;45.334;5.622;2024-02-21T09:18:32;11.93;;;5.20;;
27622;SDS011;15041;45.334;5.622;2024-02-21T09:20:59;8.43;;;5.20;;
27622;SDS011;15041;45.334;5.622;2024-02-21T09:23:27;8.37;;;5.17;;
27622;SDS011;15041;45.334;5.622;2024-02-21T09:25:54;10.00;;;5.17;;
27622;SDS011;15041;45.334;5.622;2024-02-21T09:28:21;8.90;;;4.60;;
27622;SDS011;15041;45.334;5.622;2024-02-21T09:30:48;9.77;;;5.03;;
27622;SDS011;15041;45.334;5.622;2024-02-21T09:33:15;10.17;;;4.77;;
27622;SDS011;15041;45.334;5.622;2024-02-21T09:35:44;8.97;;;5.17;;
27622;SDS011;15041;45.334;5.622;2024-02-21T09:38:12;9.50;;;4.70;;
27622;SDS011;15041;45.334;5.622;2024-02-21T09:40:39;10.10;;;5.03;;
27622;SDS011;15041;45.334;5.622;2024-02-21T09:43:07;8.40;;;5.22;;
27622;SDS011;15041;45.334;5.622;2024-02-21T09:45:35;8.40;;;4.68;;
27622;SDS011;15041;45.334;5.622;2024-02-21T09:48:06;13.68;;;5.30;;
27622;SDS011;15041;45.334;5.622;2024-02-21T09:50:48;17.70;;;4.65;;
27622;SDS011;15041;45.334;5.622;2024-02-21T09:53:16;9.60;;;5.60;;
27622;SDS011;15041;45.334;5.622;2024-02-21T09:55:46;12.85;;;5.30;;
27622;SDS011;15041;45.334;5.622;2024-02-21T09:58:14;10.88;;;6.00;;
27622;SDS011;15041;45.334;5.622;2024-02-21T10:00:42;10.13;;;5.53;;
27622;SDS011;15041;45.334;5.622;2024-02-21T10:03:09;8.82;;;4.95;;
27622;SDS011;15041;45.334;5.622;2024-02-21T10:05:38;7.63;;;4.65;;
27622;SDS011;15041;45.334;5.622;2024-02-21T10:08:07;6.65;;;4.75;;
27622;SDS011;15041;45.334;5.622;2024-02-21T10:10:42;10.98;;;5.15;;
27622;SDS011;15041;45.334;5.622;2024-02-21T10:13:09;6.72;;;4.85;;
27622;SDS011;15041;45.334;5.622;2024-02-21T10:15:37;7.15;;;4.45;;
27622;SDS011;15041;45.334;5.622;2024-02-21T10:18:04;10.55;;;4.50;;
27622;SDS011;15041;45.334;5.622;2024-02-21T10:20:32;9.75;;;5.28;;
27622;SDS011;15041;45.334;5.622;2024-02-21T10:23:02;9.07;;;5.22;;
27622;SDS011;15041;45.334;5.622;2024-02-21T10:25:35;10.45;;;5.13;;
27622;SDS011;15041;45.334;5.622;2024-02-21T10:28:03;9.45;;;4.85;;
27622;SDS011;15041;45.334;5.622;2024-02-21T10:30:31;7.32;;;4.93;;
27622;SDS011;15041;45.334;5.622;2024-02-21T10:32:58;11.95;;;4.60;;
27622;SDS011;15041;45.334;5.622;2024-02-21T10:35:25;6.13;;;4.80;;
27622;SDS011;15041;45.334;5.622;2024-02-21T10:37:54;9.27;;;5.40;;
27622;SDS011;15041;45.334;5.622;2024-02-21T10:40:23;8.95;;;5.22;;
27622;SDS011;15041;45.334;5.622;2024-02-21T10:42:53;13.95;;;5.47;;
27622;SDS011;15041;45.334;5.622;2024-02-21T10:45:26;11.50;;;5.70;;
27622;SDS011;15041;45.334;5.622;2024-02-21T10:48:00;12.00;;;4.88;;
27622;SDS011;15041;45.334;5.622;2024-02-21T10:50:36;9.85;;;5.40;;
27622;SDS011;15041;45.334;5.622;2024-02-21T10:53:16;10.52;;;4.13;;
27622;SDS011;15041;45.334;5.622;2024-02-21T10:55:52;10.52;;;4.10;;
27622;SDS011;15041;45.334;5.622;2024-02-21T10:58:27;4.32;;;3.92;;
27622;SDS011;15041;45.334;5.622;2024-02-21T11:00:56;9.30;;;3.97;;
27622;SDS011;15041;45.334;5.622;2024-02-21T11:03:24;5.78;;;3.13;;
27622;SDS011;15041;45.334;5.622;2024-02-21T11:05:51;8.10;;;3.40;;
27622;SDS011;15041;45.334;5.622;2024-02-21T11:08:19;9.88;;;3.42;;
27622;SDS011;15041;45.334;5.622;2024-02-21T11:10:46;4.85;;;3.63;;
27622;SDS011;15041;45.334;5.622;2024-02-21T11:13:13;5.82;;;2.88;;
27622;SDS011;15041;45.334;5.622;2024-02-21T11:15:42;3.53;;;2.90;;
27622;SDS011;15041;45.334;5.622;2024-02-21T11:18:09;7.22;;;3.75;;
27622;SDS011;15041;45.334;5.622;2024-02-21T11:20:37;8.35;;;3.03;;
27622;SDS011;15041;45.334;5.622;2024-02-21T11:23:04;9.68;;;2.85;;
27622;SDS011;15041;45.334;5.622;2024-02-21T11:25:32;4.30;;;2.80;;
27622;SDS011;15041;45.334;5.622;2024-02-21T11:27:59;6.75;;;2.67;;
27622;SDS011;15041;45.334;5.622;2024-02-21T11:30:27;4.90;;;2.50;;
27622;SDS011;15041;45.334;5.622;2024-02-21T11:33:01;3.72;;;2.60;;
27622;SDS011;15041;45.334;5.622;2024-02-21T11:35:33;4.00;;;2.63;;
27622;SDS011;15041;45.334;5.622;2024-02-21T11:38:07;5.55;;;3.30;;
27622;SDS011;15041;45.334;5.622;2024-02-21T11:40:38;5.72;;;2.75;;
27622;SDS011;15041;45.334;5.622;2024-02-21T11:43:06;2.90;;;2.70;;
27622;SDS011;15041;45.334;5.622;2024-02-21T11:45:33;5.00;;;4.00;;
27622;SDS011;15041;45.334;5.622;2024-02-21T11:48:02;7.03;;;2.83;;
27622;SDS011;15041;45.334;5.622;2024-02-21T11:50:31;3.47;;;2.23;;
27622;SDS011;15041;45.334;5.622;2024-02-21T11:52:58;3.47;;;2.40;;
27622;SDS011;15041;45.334;5.622;2024-02-21T11:55:26;6.60;;;2.50;;
27622;SDS011;15041;45.334;5.622;2024-02-21T11:57:53;4.43;;;2.20;;
27622;SDS011;15041;45.334;5.622;2024-02-21T12:00:20;3.50;;;2.77;;
27622;SDS011;15041;45.334;5.622;2024-02-21T12:02:49;3.30;;;2.47;;
27622;SDS011;15041;45.334;5.622;2024-02-21T12:05:19;3.73;;;2.90;;
27622;SDS011;15041;45.334;5.622;2024-02-21T12:07:46;4.73;;;2.90;;
27622;SDS011;15041;45.334;5.622;2024-02-21T12:10:13;6.17;;;3.23;;
27622;SDS011;15041;45.334;5.622;2024-02-21T12:12:41;3.87;;;3.30;;
27622;SDS011;15041;45.334;5.622;2024-02-21T12:15:08;5.93;;;3.27;;
27622;SDS011;15041;45.334;5.622;2024-02-21T12:17:35;4.23;;;3.10;;
27622;SDS011;15041;45.334;5.622;2024-02-21T12:20:03;3.63;;;2.70;;
27622;SDS011;15041;45.334;5.622;2024-02-21T12:22:37;7.23;;;2.97;;
27622;SDS011;15041;45.334;5.622;2024-02-21T12:25:15;3.20;;;2.90;;
27622;SDS011;15041;45.334;5.622;2024-02-21T12:27:44;5.80;;;2.60;;
27622;SDS011;15041;45.334;5.622;2024-02-21T12:30:11;7.77;;;3.93;;
27622;SDS011;15041;45.334;5.622;2024-02-21T12:32:39;6.05;;;2.92;;
27622;SDS011;15041;45.334;5.622;2024-02-21T12:35:06;6.03;;;3.23;;
27622;SDS011;15041;45.334;5.622;2024-02-21T12:37:36;10.23;;;2.60;;
27622;SDS011;15041;45.334;5.622;2024-02-21T12:40:04;6.27;;;2.57;;
27622;SDS011;15041;45.334;5.622;2024-02-21T12:42:32;6.83;;;3.17;;
27622;SDS011;15041;45.334;5.622;2024-02-21T12:45:00;6.10;;;3.23;;
27622;SDS011;15041;45.334;5.622;2024-02-21T12:47:28;4.80;;;3.80;;
27622;SDS011;15041;45.334;5.622;2024-02-21T12:49:55;9.37;;;3.43;;
27622;SDS011;15041;45.334;5.622;2024-02-21T12:52:22;8.63;;;3.20;;
27622;SDS011;15041;45.334;5.622;2024-02-21T12:54:51;8.87;;;3.10;;
27622;SDS011;15041;45.334;5.622;2024-02-21T12:57:21;7.53;;;3.08;;
27622;SDS011;15041;45.334;5.622;2024-02-21T12:59:48;8.07;;;3.17;;
27622;SDS011;15041;45.334;5.622;2024-02-21T13:02:16;8.37;;;3.40;;
27622;SDS011;15041;45.334;5.622;2024-02-21T13:04:45;9.57;;;3.78;;
27622;SDS011;15041;45.334;5.622;2024-02-21T13:07:12;4.60;;;3.33;;
27622;SDS011;15041;45.334;5.622;2024-02-21T13:09:39;6.68;;;3.30;;
27622;SDS011;15041;45.334;5.622;2024-02-21T13:12:08;7.67;;;2.83;;
27622;SDS011;15041;45.334;5.622;2024-02-21T13:14:35;7.78;;;3.00;;
27622;SDS011;15041;45.334;5.622;2024-02-21T13:17:04;3.37;;;2.93;;
27622;SDS011;15041;45.334;5.622;2024-02-21T13:19:32;8.70;;;3.50;;
27622;SDS011;15041;45.334;5.622;2024-02-21T13:21:59;6.90;;;3.37;;
27622;SDS011;15041;45.334;5.622;2024-02-21T13:24:27;6.13;;;3.20;;
27622;SDS011;15041;45.334;5.622;2024-02-21T13:26:54;7.88;;;3.47;;
27622;SDS011;15041;45.334;5.622;2024-02-21T13:29:23;4.97;;;3.40;;
27622;SDS011;15041;45.334;5.622;2024-02-21T13:31:50;5.40;;;2.77;;
27622;SDS011;15041;45.334;5.622;2024-02-21T13:34:17;5.17;;;2.97;;
27622;SDS011;15041;45.334;5.622;2024-02-21T13:36:44;5.33;;;3.23;;
27622;SDS011;15041;45.334;5.622;2024-02-21T13:39:11;8.30;;;2.93;;
27622;SDS011;15041;45.334;5.622;2024-02-21T13:41:41;5.23;;;3.13;;
27622;SDS011;15041;45.334;5.622;2024-02-21T13:44:08;6.73;;;3.17;;
27622;SDS011;15041;45.334;5.622;2024-02-21T13:46:37;6.27;;;2.90;;
27622;SDS011;15041;45.334;5.622;2024-02-21T13:49:04;7.73;;;3.10;;
27622;SDS011;15041;45.334;5.622;2024-02-21T13:51:32;5.33;;;3.53;;
27622;SDS011;15041;45.334;5.622;2024-02-21T13:54:01;4.87;;;2.97;;
27622;SDS011;15041;45.334;5.622;2024-02-21T13:56:29;6.60;;;2.83;;
27622;SDS011;15041;45.334;5.622;2024-02-21T13:58:57;8.73;;;3.53;;
27622;SDS011;15041;45.334;5.622;2024-02-21T14:01:25;4.63;;;2.57;;
27622;SDS011;15041;45.334;5.622;2024-02-21T14:03:54;6.10;;;3.20;;
27622;SDS011;15041;45.334;5.622;2024-02-21T14:06:21;4.70;;;3.00;;
27622;SDS011;15041;45.334;5.622;2024-02-21T14:08:48;6.53;;;3.03;;
27622;SDS011;15041;45.334;5.622;2024-02-21T14:11:16;4.57;;;3.30;;
27622;SDS011;15041;45.334;5.622;2024-02-21T14:13:43;5.87;;;2.83;;
27622;SDS011;15041;45.334;5.622;2024-02-21T14:16:10;8.13;;;3.00;;
27622;SDS011;15041;45.334;5.622;2024-02-21T14:18:38;5.77;;;2.97;;
27622;SDS011;15041;45.334;5.622;2024-02-21T14:21:08;7.87;;;3.33;;
27622;SDS011;15041;45.334;5.622;2024-02-21T14:23:37;5.07;;;3.20;;
27622;SDS011;15041;45.334;5.622;2024-02-21T14:26:04;3.13;;;2.80;;
27622;SDS011;15041;45.334;5.622;2024-02-21T14:28:31;6.85;;;3.75;;
27622;SDS011;15041;45.334;5.622;2024-02-21T14:30:59;6.10;;;3.50;;
27622;SDS011;15041;45.334;5.622;2024-02-21T14:33:27;4.27;;;3.00;;
27622;SDS011;15041;45.334;5.622;2024-02-21T14:35:54;4.63;;;3.10;;
27622;SDS011;15041;45.334;5.622;2024-02-21T14:38:22;5.23;;;2.70;;
27622;SDS011;15041;45.334;5.622;2024-02-21T14:40:49;4.00;;;3.10;;
27622;SDS011;15041;45.334;5.622;2024-02-21T14:43:16;5.27;;;3.10;;
27622;SDS011;15041;45.334;5.622;2024-02-21T14:45:47;6.30;;;3.30;;
27622;SDS011;15041;45.334;5.622;2024-02-21T14:48:14;4.90;;;2.77;;
27622;SDS011;15041;45.334;5.622;2024-02-21T14:50:41;4.10;;;3.17;;